createdAt,value
2019-04-04T00:54:28.790Z,6.10
2019-04-04T01:26:01.368Z,6.30
2019-04-04T01:34:24.051Z,6.30
2019-04-04T01:39:49.687Z,6.30
2019-04-04T01:42:21.379Z,6.30
2019-04-04T01:50:40.496Z,6.40
2019-04-04T01:56:09.479Z,6.40
2019-04-04T02:01:35.850Z,6.40
2019-04-04T02:04:13.685Z,6.40
2019-04-04T02:24:02.087Z,6.40
2019-04-04T02:26:36.613Z,6.30
2019-04-04T02:32:01.751Z,6.30
2019-04-04T03:16:04.111Z,6.30
2019-04-04T03:21:39.105Z,6.20
2019-04-04T03:24:20.106Z,6.20
2019-04-04T03:43:22.104Z,6.00
2019-04-04T03:46:10.428Z,6.00
2019-04-04T03:51:37.110Z,6.00
2019-04-04T03:54:07.164Z,6.00
2019-04-04T03:56:39.217Z,6.00
2019-04-04T03:59:06.261Z,6.00
2019-04-04T04:01:34.961Z,6.00
2019-04-04T04:04:03.652Z,6.00
2019-04-04T04:06:33.184Z,5.90
2019-04-04T04:09:08.259Z,5.80
2019-04-04T10:06:59.914Z,7.40
2019-04-04T10:09:32.830Z,7.30
2019-04-04T10:12:05.743Z,7.40
2019-04-04T11:30:53.941Z,7.40
2019-04-04T14:28:07.810Z,8.20
2019-04-04T15:27:53.639Z,7.40
2019-04-04T15:33:18.976Z,7.30
2019-04-04T15:35:56.359Z,7.30
2019-04-04T15:38:33.712Z,7.30
2019-04-04T15:43:55.942Z,7.40
2019-04-04T15:46:30.442Z,7.30
2019-04-04T15:49:05.444Z,7.30
2019-04-04T15:51:44.815Z,7.20
2019-04-04T15:54:17.722Z,7.30
2019-04-04T15:56:59.249Z,7.30
2019-04-04T16:05:21.593Z,7.30
2019-04-04T16:10:51.939Z,7.30
2019-04-04T16:16:21.766Z,7.20
2019-04-04T16:18:57.015Z,7.20
2019-04-04T16:21:30.842Z,7.20
2019-04-04T16:24:16.434Z,7.20
2019-04-04T16:29:44.280Z,7.20
2019-04-04T16:32:15.212Z,7.10
2019-04-04T16:37:36.210Z,7.00
2019-04-04T16:40:12.680Z,7.10
2019-04-04T16:42:50.147Z,7.00
2019-04-04T16:45:24.533Z,7.00
2019-04-04T16:47:55.116Z,7.00
2019-04-04T16:50:29.071Z,6.90
2019-04-04T16:53:01.605Z,6.90
2019-04-04T16:55:37.859Z,6.80
2019-04-04T16:58:13.937Z,6.80
2019-04-04T17:00:47.226Z,6.80
2019-04-04T17:03:19.716Z,6.70
2019-04-04T17:05:51.333Z,6.70
2019-04-04T17:08:25.301Z,6.70
2019-04-04T17:11:00.145Z,6.70
2019-04-04T17:13:32.260Z,6.70
2019-04-04T17:18:52.914Z,6.60
2019-04-04T17:21:24.784Z,6.60
2019-04-04T17:24:00.638Z,6.60
2019-04-04T17:26:30.623Z,6.60
2019-04-04T17:31:50.784Z,6.60
2019-04-04T17:34:24.014Z,6.50
2019-04-04T17:36:55.257Z,6.50
2019-04-04T17:39:31.902Z,6.40
2019-04-04T17:44:54.969Z,6.40
2019-04-04T17:50:18.732Z,6.30
2019-04-04T17:52:50.685Z,6.30
2019-04-04T17:58:10.615Z,6.30
2019-04-04T18:00:42.897Z,6.30
2019-04-04T18:03:19.344Z,6.30
2019-04-04T18:05:49.278Z,6.30
2019-04-04T18:11:08.835Z,6.30
2019-04-04T18:13:39.432Z,6.20
2019-04-04T18:16:11.420Z,6.20
2019-04-04T18:18:46.031Z,6.20
2019-04-04T18:21:21.064Z,6.20
2019-04-04T18:23:54.739Z,6.20
2019-04-04T18:26:29.183Z,6.10
2019-04-04T18:29:02.028Z,6.10
2019-04-04T18:31:36.242Z,6.10
2019-04-04T18:34:11.229Z,6.20
2019-04-04T18:39:40.629Z,6.10
2019-04-04T18:42:20.721Z,6.00
2019-04-04T18:44:53.173Z,6.00
2019-04-04T18:50:18.176Z,6.00
2019-04-04T18:52:51.605Z,6.00
2019-04-04T18:55:25.083Z,6.10
2019-04-04T18:57:58.770Z,6.10
2019-04-04T19:03:22.402Z,6.10
2019-04-04T19:05:54.097Z,6.10
2019-04-04T19:08:24.201Z,6.00
2019-04-04T19:10:55.970Z,6.00
2019-04-04T19:13:28.460Z,6.00
2019-04-04T19:15:58.453Z,6.00
2019-04-04T19:18:31.360Z,6.00
2019-04-04T19:26:42.912Z,5.90
2019-04-04T19:29:15.206Z,5.90
2019-04-04T19:31:48.146Z,5.90
2019-04-04T19:34:22.913Z,5.90
2019-04-04T19:36:55.117Z,5.90
2019-04-04T19:39:24.746Z,5.90
2019-04-04T19:41:55.136Z,5.90
2019-04-04T19:44:25.777Z,6.00
2019-04-04T19:46:58.027Z,5.90
2019-04-04T19:49:49.061Z,5.90
2019-04-04T19:55:16.004Z,5.90
2019-04-04T19:57:47.505Z,5.90
2019-04-04T20:00:22.197Z,5.90
2019-04-04T20:02:55.063Z,5.90
2019-04-04T20:05:28.837Z,5.90
2019-04-04T20:08:01.033Z,5.90
2019-04-04T20:10:32.494Z,5.90
2019-04-04T20:13:08.807Z,5.90
2019-04-04T20:15:41.532Z,5.90
2019-04-04T20:23:57.497Z,5.90
2019-04-04T20:26:27.769Z,5.90
2019-04-04T20:29:01.429Z,5.90
2019-04-04T20:31:34.615Z,5.90
2019-04-04T20:34:06.432Z,5.90
2019-04-04T20:36:37.617Z,5.90
2019-04-04T20:39:10.902Z,5.90
2019-04-04T20:41:44.908Z,5.80
2019-04-04T20:44:18.909Z,5.80
2019-04-04T20:46:51.032Z,5.80
2019-04-04T20:49:25.962Z,5.80
2019-04-04T20:51:56.420Z,5.80
2019-04-04T20:54:26.780Z,5.80
2019-04-04T20:56:57.979Z,5.80
2019-04-04T20:59:49.812Z,5.80
2019-04-04T21:02:25.670Z,5.80
2019-04-04T21:05:17.881Z,5.80
2019-04-04T21:07:52.128Z,5.80
2019-04-04T21:10:23.618Z,5.80
2019-04-04T21:12:57.525Z,5.80
2019-04-04T21:15:33.915Z,5.80
2019-04-04T21:18:08.337Z,5.80
2019-04-04T21:20:40.190Z,5.80
2019-04-04T21:23:20.879Z,5.80
2019-04-04T21:25:52.252Z,5.80
2019-04-04T21:28:27.242Z,5.80
2019-04-04T21:31:01.376Z,5.80
2019-04-04T21:33:33.752Z,5.80
2019-04-04T21:36:04.998Z,5.80
2019-04-04T21:38:35.923Z,5.70
2019-04-04T21:46:53.058Z,5.80
2019-04-04T21:49:34.959Z,5.80
2019-04-04T21:52:10.015Z,5.80
2019-04-04T21:54:45.435Z,5.80
2019-04-04T21:57:18.422Z,5.80
2019-04-04T22:02:39.565Z,5.90
2019-04-04T22:08:08.350Z,5.90
2019-04-04T22:10:45.840Z,5.90
2019-04-04T22:13:33.786Z,5.80
2019-04-04T22:24:29.602Z,5.90
2019-04-04T22:27:04.139Z,5.80
2019-04-04T22:32:26.865Z,5.80
2019-04-04T22:43:04.639Z,5.80
2019-04-04T22:45:36.467Z,5.80
2019-04-04T22:48:07.832Z,5.90
2019-04-04T22:50:39.264Z,5.80
2019-04-04T22:53:08.427Z,5.70
2019-04-04T22:55:41.938Z,5.70
2019-04-04T22:58:11.966Z,5.70
2019-04-04T23:00:46.832Z,5.70
2019-04-04T23:03:19.976Z,5.70
2019-04-04T23:11:14.133Z,5.70
2019-04-04T23:13:44.513Z,5.60
2019-04-04T23:16:16.290Z,5.70
2019-04-04T23:18:47.934Z,5.70
2019-04-04T23:24:06.925Z,5.70
2019-04-04T23:32:21.949Z,5.70
2019-04-04T23:34:54.016Z,5.70
2019-04-04T23:37:23.783Z,5.70
2019-04-04T23:39:54.008Z,5.70
2019-04-04T23:42:24.496Z,5.70
2019-04-04T23:45:00.758Z,5.70
2019-04-04T23:50:05.484Z,5.70
2019-04-04T23:52:38.396Z,5.70
2019-04-04T23:55:13.283Z,5.70
2019-04-04T23:57:51.655Z,5.70
